Time;durP1;ratioP1;P1;durP2;ratioP2;P2;SDS_P1;SDS_P2;PMS_P1;PMS_P2;Temp;Humidity;BMP_temperature;BMP_pressure;BME280_temperature;BME280_humidity;BME280_pressure;Samples;Min_cycle;Max_cycle;Signal;HPM_P1;HPM_P2
2024/04/23 00:00:07;;;;;;;6.85;4.57;;;7.10;93.50;;;;;;5475904;26;20345;-70
2024/04/23 00:02:53;;;;;;;6.85;5.10;;;7.00;93.50;;;;;;5475503;26;20002;-69
2024/04/23 00:05:39;;;;;;;6.90;5.13;;;7.00;93.60;;;;;;5471340;26;20017;-70
2024/04/23 00:08:25;;;;;;;7.95;5.15;;;7.00;93.60;;;;;;5471086;26;20009;-69
2024/04/23 00:11:11;;;;;;;6.80;5.00;;;7.00;93.60;;;;;;5477644;26;19998;-68
2024/04/23 00:14:00;;;;;;;6.22;4.68;;;6.90;93.60;;;;;;5475760;26;20463;-69
2024/04/23 00:17:04;;;;;;;7.57;4.63;;;6.80;93.60;;;;;;5451568;26;20071;-69
2024/04/23 00:19:50;;;;;;;6.00;4.55;;;6.80;93.60;;;;;;5449203;26;20002;-69
2024/04/23 00:22:36;;;;;;;6.60;4.28;;;6.70;93.60;;;;;;5485402;26;20073;-69
2024/04/23 00:25:22;;;;;;;6.05;4.35;;;6.70;93.70;;;;;;5452895;26;19999;-69
2024/04/23 00:28:08;;;;;;;7.35;4.78;;;6.60;93.70;;;;;;5465677;26;20450;-69
2024/04/23 00:30:54;;;;;;;5.40;3.97;;;6.70;93.80;;;;;;5457986;26;20002;-69
2024/04/23 00:33:40;;;;;;;6.05;4.03;;;6.60;93.80;;;;;;5473790;26;19999;-69
2024/04/23 00:36:26;;;;;;;6.68;4.80;;;6.60;93.80;;;;;;5481179;26;20009;-70
2024/04/23 00:39:11;;;;;;;5.97;4.80;;;6.50;93.90;;;;;;5457515;26;19991;-70
2024/04/23 00:41:58;;;;;;;6.18;4.75;;;6.50;93.90;;;;;;5459615;26;20047;-70
2024/04/23 00:44:44;;;;;;;7.53;4.93;;;6.50;94.00;;;;;;5463803;26;20075;-70
2024/04/23 00:47:30;;;;;;;6.40;4.55;;;6.50;94.00;;;;;;5465012;26;20517;-70
2024/04/23 00:50:17;;;;;;;7.47;4.50;;;6.40;94.00;;;;;;5473697;26;19994;-70
2024/04/23 00:53:03;;;;;;;8.98;5.80;;;6.30;94.00;;;;;;5456851;26;20003;-70
2024/04/23 00:55:49;;;;;;;6.00;4.68;;;6.30;94.10;;;;;;5471234;26;20068;-71
2024/04/23 00:58:36;;;;;;;7.53;4.95;;;6.30;94.10;;;;;;5474055;26;20474;-70
2024/04/23 01:01:22;;;;;;;6.63;4.85;;;6.30;94.10;;;;;;5467176;26;20546;-71
2024/04/23 01:04:08;;;;;;;6.30;4.75;;;6.20;94.10;;;;;;5467475;26;19994;-70
2024/04/23 01:06:54;;;;;;;6.90;4.75;;;6.10;94.20;;;;;;5464684;26;20030;-70
2024/04/23 01:09:40;;;;;;;7.07;4.80;;;6.20;94.30;;;;;;5463687;26;20075;-70
2024/04/23 01:12:26;;;;;;;6.40;4.60;;;6.20;94.30;;;;;;5464217;26;20009;-70
2024/04/23 01:15:14;;;;;;;8.63;5.20;;;6.10;94.30;;;;;;5466738;26;20023;-70
2024/04/23 01:18:03;;;;;;;8.75;4.50;;;6.10;94.30;;;;;;5464313;26;20330;-70
2024/04/23 01:20:54;;;;;;;8.40;5.68;;;6.00;94.30;;;;;;5465625;26;20023;-70
2024/04/23 01:23:47;;;;;;;6.55;4.70;;;6.00;94.30;;;;;;5465805;26;20009;-70
2024/04/23 01:26:33;;;;;;;8.30;5.05;;;6.00;94.30;;;;;;5465000;26;20002;-70
2024/04/23 01:29:19;;;;;;;7.82;5.38;;;5.90;94.30;;;;;;5463305;26;19998;-70
2024/04/23 01:32:07;;;;;;;9.38;4.57;;;5.90;94.40;;;;;;5467851;26;20027;-71
2024/04/23 01:34:54;;;;;;;6.68;5.10;;;5.80;94.40;;;;;;5464881;26;20053;-70
2024/04/23 01:37:42;;;;;;;7.85;5.32;;;5.80;94.40;;;;;;5466475;26;20016;-71
2024/04/23 01:40:29;;;;;;;7.30;5.18;;;5.80;94.50;;;;;;5466385;26;20003;-71
2024/04/23 01:43:15;;;;;;;8.27;5.40;;;5.80;94.60;;;;;;5471942;26;20019;-70
2024/04/23 01:46:03;;;;;;;8.27;5.55;;;5.80;94.60;;;;;;5437014;26;20002;-70
2024/04/23 01:48:49;;;;;;;6.90;4.97;;;5.80;94.60;;;;;;5470553;26;20002;-70
2024/04/23 01:51:36;;;;;;;10.30;4.55;;;5.70;94.60;;;;;;5457936;26;19990;-70
2024/04/23 01:54:21;;;;;;;6.28;4.65;;;5.70;94.60;;;;;;5479222;26;20006;-71
2024/04/23 01:57:08;;;;;;;8.02;4.18;;;5.70;94.60;;;;;;5452815;26;20030;-70
2024/04/23 02:00:02;;;;;;;6.78;4.53;;;5.70;94.60;;;;;;5471539;26;20071;-71
2024/04/23 02:02:49;;;;;;;6.55;4.28;;;5.60;94.70;;;;;;5462701;26;20163;-70
2024/04/23 02:05:36;;;;;;;7.93;4.75;;;5.60;94.70;;;;;;5479932;26;20335;-71
2024/04/23 02:08:22;;;;;;;6.10;5.13;;;5.60;94.70;;;;;;5475899;26;19999;-70
2024/04/23 02:11:08;;;;;;;11.15;6.63;;;5.60;94.70;;;;;;5463293;26;20065;-70
2024/04/23 02:13:54;;;;;;;9.35;5.88;;;5.60;94.70;;;;;;5484599;26;20448;-70
2024/04/23 02:16:40;;;;;;;7.82;6.22;;;5.60;94.70;;;;;;5472072;26;20009;-71
2024/04/23 02:19:26;;;;;;;9.50;5.38;;;5.60;94.70;;;;;;5474599;26;20028;-71
2024/04/23 02:22:11;;;;;;;8.75;6.38;;;5.60;94.70;;;;;;5463903;26;20002;-71
2024/04/23 02:24:57;;;;;;;7.88;5.88;;;5.60;94.70;;;;;;5484807;26;20004;-71
2024/04/23 02:27:43;;;;;;;7.75;5.47;;;5.60;94.70;;;;;;5480648;26;20022;-71
2024/04/23 02:30:29;;;;;;;8.95;5.72;;;5.60;94.70;;;;;;5458583;26;19991;-71
2024/04/23 02:33:15;;;;;;;6.25;5.20;;;5.60;94.60;;;;;;5475897;26;20009;-70
2024/04/23 02:36:01;;;;;;;6.55;4.40;;;5.60;94.60;;;;;;5476940;26;20451;-70
2024/04/23 02:38:47;;;;;;;6.20;4.70;;;5.50;94.60;;;;;;5474465;26;20014;-70
2024/04/23 02:41:36;;;;;;;6.32;4.97;;;5.50;94.60;;;;;;5471228;26;20057;-70
2024/04/23 02:44:22;;;;;;;6.15;4.25;;;5.50;94.60;;;;;;5458244;26;20458;-71
2024/04/23 02:47:08;;;;;;;5.72;4.45;;;5.50;94.60;;;;;;5480509;26;19998;-70
2024/04/23 02:49:54;;;;;;;8.70;4.47;;;5.50;94.60;;;;;;5472416;26;20034;-70
2024/04/23 02:52:40;;;;;;;5.50;4.22;;;5.50;94.60;;;;;;5467680;26;20005;-69
2024/04/23 02:55:26;;;;;;;5.85;4.50;;;5.50;94.60;;;;;;5472424;26;19995;-69
2024/04/23 02:58:12;;;;;;;6.57;4.10;;;5.50;94.60;;;;;;5465605;26;20010;-69
2024/04/23 03:00:58;;;;;;;4.57;3.85;;;5.40;94.60;;;;;;5462294;26;20473;-69
2024/04/23 03:03:43;;;;;;;5.72;4.28;;;5.40;94.60;;;;;;5461585;26;20610;-69
2024/04/23 03:06:29;;;;;;;5.22;3.90;;;5.40;94.50;;;;;;5461064;26;20420;-69
2024/04/23 03:09:15;;;;;;;6.95;4.63;;;5.30;94.50;;;;;;5476434;26;20450;-69
2024/04/23 03:12:01;;;;;;;6.57;4.05;;;5.30;94.60;;;;;;5463481;26;20006;-69
2024/04/23 03:14:47;;;;;;;5.18;3.95;;;5.30;94.50;;;;;;5471664;26;20307;-69
2024/04/23 03:17:33;;;;;;;5.65;4.03;;;5.30;94.60;;;;;;5458439;26;19999;-69
2024/04/23 03:20:19;;;;;;;5.80;4.32;;;5.30;94.60;;;;;;5478390;26;20381;-69
2024/04/23 03:23:05;;;;;;;5.20;4.18;;;5.20;94.50;;;;;;5494006;26;20403;-69
2024/04/23 03:25:51;;;;;;;5.18;3.50;;;5.20;94.60;;;;;;5463407;26;20007;-69
2024/04/23 03:28:37;;;;;;;5.40;3.83;;;5.20;94.60;;;;;;5473662;26;20001;-69
2024/04/23 03:31:23;;;;;;;5.68;4.13;;;5.20;94.80;;;;;;5477250;26;20006;-68
2024/04/23 03:34:09;;;;;;;7.35;4.28;;;5.20;94.60;;;;;;5483558;26;19995;-68
2024/04/23 03:36:55;;;;;;;5.95;3.83;;;5.20;94.60;;;;;;5484897;26;20054;-69
2024/04/23 03:39:41;;;;;;;5.68;4.10;;;5.10;94.60;;;;;;5450520;26;20317;-69
2024/04/23 03:42:27;;;;;;;5.32;4.05;;;5.10;94.50;;;;;;5462397;26;19999;-70
2024/04/23 03:45:13;;;;;;;4.82;3.55;;;5.10;94.50;;;;;;5486311;26;20014;-70
2024/04/23 03:47:59;;;;;;;6.25;4.10;;;5.10;94.50;;;;;;5466920;26;20145;-70
2024/04/23 03:50:45;;;;;;;5.18;3.75;;;5.10;94.50;;;;;;5469253;26;20326;-70
2024/04/23 03:53:31;;;;;;;5.25;3.90;;;5.10;94.50;;;;;;5449060;26;20451;-70
2024/04/23 03:56:17;;;;;;;5.30;3.95;;;5.00;94.50;;;;;;5463759;26;19999;-70
2024/04/23 03:59:03;;;;;;;5.13;3.83;;;4.90;94.40;;;;;;5477568;26;20458;-67
2024/04/23 04:06:03;;;;;;;4.72;3.80;;;5.00;94.40;;;;;;5456348;26;19999;-69
2024/04/23 04:07:59;;;;;;;5.75;3.78;;;5.00;94.40;;;;;;5469093;26;20009;-75
2024/04/23 04:10:45;;;;;;;6.05;4.05;;;5.00;94.40;;;;;;5443623;26;19998;-77
2024/04/23 04:13:32;;;;;;;6.93;4.35;;;4.90;94.40;;;;;;5479558;26;20010;-73
2024/04/23 04:16:18;;;;;;;5.35;4.20;;;4.90;94.40;;;;;;5454770;26;20012;-74
2024/04/23 04:19:04;;;;;;;7.32;4.13;;;4.90;94.50;;;;;;5455227;26;20013;-74
2024/04/23 04:21:50;;;;;;;7.57;3.60;;;4.90;94.50;;;;;;5440840;26;20018;-73
2024/04/23 04:24:36;;;;;;;5.47;3.72;;;4.90;94.50;;;;;;5464285;26;19994;-73
2024/04/23 04:27:22;;;;;;;5.53;3.78;;;4.90;94.50;;;;;;5459404;26;20439;-73
2024/04/23 04:30:09;;;;;;;5.88;3.50;;;4.90;94.50;;;;;;5463908;26;19998;-73
2024/04/23 04:32:55;;;;;;;6.63;4.22;;;4.90;94.50;;;;;;5469291;26;20449;-73
2024/04/23 04:35:41;;;;;;;7.70;4.18;;;4.90;94.50;;;;;;5480310;26;20469;-71
2024/04/23 04:38:27;;;;;;;6.15;4.18;;;4.90;94.50;;;;;;5456735;26;20007;-72
2024/04/23 04:41:13;;;;;;;5.65;4.53;;;5.00;94.50;;;;;;5451261;26;20009;-77
2024/04/23 04:43:59;;;;;;;6.22;4.15;;;5.00;94.60;;;;;;5477604;26;20364;-77
2024/04/23 04:46:44;;;;;;;6.15;4.18;;;5.00;94.60;;;;;;5478055;26;20406;-76
2024/04/23 04:49:31;;;;;;;7.85;4.13;;;5.00;94.60;;;;;;5455199;26;20640;-77
2024/04/23 04:52:16;;;;;;;6.30;4.63;;;5.10;94.70;;;;;;5464728;26;20014;-77
2024/04/23 04:55:03;;;;;;;8.35;4.88;;;5.10;94.70;;;;;;5450448;26;20055;-76
2024/04/23 04:57:48;;;;;;;6.00;4.30;;;5.10;94.70;;;;;;5461424;26;20007;-76
2024/04/23 05:00:34;;;;;;;6.40;4.93;;;5.20;94.80;;;;;;5458631;26;20022;-77
2024/04/23 05:03:20;;;;;;;5.88;4.20;;;5.20;95.00;;;;;;5480547;26;20031;-76
2024/04/23 05:06:06;;;;;;;7.32;5.00;;;5.20;94.80;;;;;;5484286;26;20006;-76
2024/04/23 05:08:52;;;;;;;6.50;4.85;;;5.30;94.80;;;;;;5450812;26;20049;-74
2024/04/23 05:11:38;;;;;;;7.93;5.32;;;5.40;94.80;;;;;;5469609;26;20013;-77
2024/04/23 05:14:24;;;;;;;6.00;4.05;;;5.40;94.80;;;;;;5474482;26;20069;-77
2024/04/23 05:17:10;;;;;;;5.38;4.38;;;5.50;94.90;;;;;;5478133;26;19994;-76
2024/04/23 05:19:56;;;;;;;6.97;4.63;;;5.50;94.90;;;;;;5471240;26;20383;-76
2024/04/23 05:22:42;;;;;;;7.85;4.85;;;5.60;95.00;;;;;;5461777;26;20008;-76
2024/04/23 05:25:28;;;;;;;7.20;4.78;;;5.70;95.00;;;;;;5484428;26;20005;-75
2024/04/23 05:28:14;;;;;;;7.15;4.90;;;5.80;95.10;;;;;;5484715;26;20034;-75
2024/04/23 05:34:05;;;;;;;7.63;5.43;;;6.00;95.10;;;;;;5470232;26;20003;-76
2024/04/23 05:36:51;;;;;;;6.40;4.43;;;6.10;95.10;;;;;;5473191;26;20022;-72
2024/04/23 05:39:37;;;;;;;5.90;4.50;;;6.20;95.20;;;;;;5482137;26;20548;-73
2024/04/23 05:42:23;;;;;;;6.25;4.90;;;6.30;95.20;;;;;;5462338;26;19998;-71
2024/04/23 05:45:09;;;;;;;6.20;4.65;;;6.40;95.20;;;;;;5482313;26;20478;-69
2024/04/23 05:48:32;;;;;;;6.88;4.90;;;6.50;95.20;;;;;;5473503;26;20003;-70
2024/04/23 05:51:55;;;;;;;8.48;5.32;;;6.60;95.10;;;;;;5465134;26;20062;-71
2024/04/23 05:55:19;;;;;;;9.63;6.22;;;6.70;95.00;;;;;;5479329;26;20403;-70
2024/04/23 05:58:05;;;;;;;7.75;5.85;;;6.70;94.70;;;;;;5445594;26;20002;-70
2024/04/23 06:00:52;;;;;;;8.15;6.47;;;6.60;94.70;;;;;;5462248;26;20275;-69
2024/04/23 06:03:38;;;;;;;10.52;5.78;;;6.60;94.90;;;;;;5465522;26;20022;-69
2024/04/23 06:06:24;;;;;;;8.13;6.28;;;6.70;94.90;;;;;;5436072;26;20435;-69
2024/04/23 06:09:10;;;;;;;7.82;5.65;;;6.80;94.90;;;;;;5425717;26;20017;-69
2024/04/23 06:11:56;;;;;;;8.93;6.10;;;6.80;94.80;;;;;;5433585;26;19998;-70
2024/04/23 06:14:43;;;;;;;10.55;6.32;;;6.80;94.80;;;;;;5437037;26;20036;-70
2024/04/23 06:17:34;;;;;;;8.95;6.13;;;6.90;94.80;;;;;;5417852;26;20003;-70
2024/04/23 06:20:20;;;;;;;11.90;5.75;;;6.90;94.60;;;;;;5437876;26;20009;-70
2024/04/23 06:23:06;;;;;;;11.23;6.32;;;6.80;94.40;;;;;;5435216;26;20057;-70
2024/04/23 06:25:52;;;;;;;8.40;5.57;;;6.80;94.50;;;;;;5433309;26;20007;-70
2024/04/23 06:28:38;;;;;;;9.27;6.18;;;6.80;94.50;;;;;;5441146;26;20002;-71
2024/04/23 06:31:29;;;;;;;10.50;7.30;;;6.80;94.40;;;;;;5444495;26;19995;-70
2024/04/23 06:34:14;;;;;;;13.15;6.53;;;6.80;94.30;;;;;;5432942;26;20346;-72
2024/04/23 06:37:01;;;;;;;9.93;5.38;;;6.70;93.90;;;;;;5417012;26;20010;-70
2024/04/23 06:39:46;;;;;;;9.73;5.53;;;6.70;93.90;;;;;;5427020;26;20000;-70
2024/04/23 06:42:33;;;;;;;7.85;5.80;;;6.60;93.70;;;;;;5443179;26;20504;-70
2024/04/23 06:45:19;;;;;;;8.85;5.03;;;6.70;93.60;;;;;;5423389;26;20384;-71
2024/04/23 06:48:05;;;;;;;6.80;4.78;;;6.70;93.50;;;;;;5436617;26;20021;-70
2024/04/23 06:50:51;;;;;;;6.75;4.55;;;6.70;93.40;;;;;;5443701;26;20014;-70
2024/04/23 06:53:37;;;;;;;9.07;4.95;;;6.70;93.40;;;;;;5438980;26;20007;-70
2024/04/23 06:56:23;;;;;;;7.95;5.38;;;6.80;93.30;;;;;;5429552;26;19991;-71
2024/04/23 06:59:09;;;;;;;7.32;4.70;;;6.90;93.30;;;;;;5416903;26;20027;-70
2024/04/23 07:01:55;;;;;;;8.30;5.38;;;7.00;93.20;;;;;;5429282;26;20587;-70
2024/04/23 07:04:41;;;;;;;8.55;5.00;;;7.10;93.20;;;;;;5434202;26;20006;-72
2024/04/23 07:07:27;;;;;;;6.13;4.57;;;7.30;93.10;;;;;;5437611;26;20474;-71
2024/04/23 07:10:13;;;;;;;7.85;4.93;;;7.40;93.00;;;;;;5453930;26;20114;-71
2024/04/23 07:12:59;;;;;;;7.00;4.13;;;7.60;92.90;;;;;;5461379;26;20037;-72
2024/04/23 07:15:44;;;;;;;6.95;4.57;;;7.70;92.50;;;;;;5466722;26;19994;-72
2024/04/23 07:18:31;;;;;;;6.07;4.40;;;7.70;92.30;;;;;;5473870;26;20004;-72
2024/04/23 07:21:17;;;;;;;7.40;4.07;;;7.70;92.00;;;;;;5458150;26;20359;-71
2024/04/23 07:24:03;;;;;;;7.05;4.43;;;7.60;91.50;;;;;;5488167;25;20006;-72
2024/04/23 07:26:51;;;;;;;7.00;4.18;;;7.60;91.60;;;;;;5446401;26;20010;-71
2024/04/23 07:29:37;;;;;;;7.35;4.10;;;7.50;91.30;;;;;;5478490;26;20002;-71
2024/04/23 07:32:23;;;;;;;5.65;3.40;;;7.50;90.30;;;;;;5467374;26;20453;-71
2024/04/23 07:35:09;;;;;;;5.68;3.53;;;7.50;90.40;;;;;;5456499;26;20462;-70
2024/04/23 07:37:55;;;;;;;6.68;3.60;;;7.50;90.20;;;;;;5460337;26;20013;-70
2024/04/23 07:40:46;;;;;;;10.35;5.45;;;7.40;90.10;;;;;;5480410;26;20020;-71
2024/04/23 07:43:32;;;;;;;7.53;4.28;;;7.40;89.70;;;;;;5459555;26;20002;-73
2024/04/23 07:46:18;;;;;;;5.50;3.65;;;7.40;89.00;;;;;;5473704;26;20246;-71
2024/04/23 07:49:05;;;;;;;7.07;3.72;;;7.30;89.30;;;;;;5461487;26;19998;-71
2024/04/23 07:51:50;;;;;;;4.80;3.33;;;7.40;89.30;;;;;;5456122;26;20338;-70
2024/04/23 07:54:36;;;;;;;5.10;3.60;;;7.40;89.00;;;;;;5485605;26;20427;-69
2024/04/23 07:57:22;;;;;;;5.68;3.90;;;7.50;88.70;;;;;;5471438;26;20362;-70
2024/04/23 08:00:09;;;;;;;6.20;4.18;;;7.50;87.80;;;;;;5477216;26;20038;-71
2024/04/23 08:02:55;;;;;;;7.05;3.90;;;7.50;86.90;;;;;;5467396;26;19998;-70
2024/04/23 08:05:41;;;;;;;7.00;3.33;;;7.50;86.30;;;;;;5469853;26;19994;-70
2024/04/23 08:08:27;;;;;;;6.22;3.70;;;7.50;86.30;;;;;;5421538;26;20306;-70
2024/04/23 08:11:13;;;;;;;4.78;2.97;;;7.50;85.80;;;;;;5449557;26;20067;-70
2024/04/23 08:13:59;;;;;;;6.20;3.45;;;7.50;85.90;;;;;;5430839;26;20422;-71
2024/04/23 08:16:48;;;;;;;4.97;3.10;;;7.50;85.60;;;;;;5445696;26;20007;-70
2024/04/23 08:19:34;;;;;;;4.60;3.58;;;7.50;85.20;;;;;;5439321;26;20022;-71
2024/04/23 08:22:20;;;;;;;6.78;3.60;;;7.50;84.10;;;;;;5446890;26;20332;-70
2024/04/23 08:25:09;;;;;;;5.32;3.28;;;7.50;83.60;;;;;;5439975;26;19995;-70
2024/04/23 08:27:55;;;;;;;8.88;3.58;;;7.50;83.50;;;;;;5461127;26;20501;-70
2024/04/23 08:30:43;;;;;;;6.70;3.55;;;7.50;83.90;;;;;;5417768;26;20599;-70
2024/04/23 08:33:29;;;;;;;5.50;3.40;;;7.60;84.00;;;;;;5461271;26;20002;-70
2024/04/23 08:36:14;;;;;;;5.32;3.15;;;7.60;83.00;;;;;;5438993;26;20481;-70
2024/04/23 08:39:00;;;;;;;5.25;3.60;;;7.60;82.50;;;;;;5447416;26;20003;-70
2024/04/23 08:41:47;;;;;;;5.63;3.35;;;7.60;82.70;;;;;;5414260;26;19995;-70
2024/04/23 08:44:36;;;;;;;4.90;3.38;;;7.70;82.60;;;;;;5420559;26;20831;-70
2024/04/23 08:47:23;;;;;;;7.07;4.20;;;7.70;82.20;;;;;;5442521;26;20640;-70
2024/04/23 08:50:09;;;;;;;7.05;4.07;;;7.80;82.40;;;;;;5403954;26;20003;-70
2024/04/23 08:52:56;;;;;;;9.40;3.60;;;7.80;82.40;;;;;;5433477;26;20002;-69
2024/04/23 08:55:44;;;;;;;5.95;3.53;;;7.90;82.00;;;;;;5442301;26;19991;-69
2024/04/23 08:58:30;;;;;;;5.43;3.40;;;8.00;82.20;;;;;;5422113;26;20006;-77
2024/04/23 09:01:27;;;;;;;5.07;3.70;;;8.10;82.10;;;;;;5454147;26;20009;-79
2024/04/23 09:04:14;;;;;;;6.07;3.58;;;8.20;81.20;;;;;;5420772;26;20003;-79
2024/04/23 09:07:00;;;;;;;6.70;3.88;;;8.20;81.20;;;;;;5441198;26;20039;-79
2024/04/23 09:09:47;;;;;;;8.20;3.30;;;8.30;80.90;;;;;;5466641;26;19998;-76
2024/04/23 09:12:33;;;;;;;8.63;4.57;;;8.40;80.30;;;;;;5468502;26;20034;-79
2024/04/23 09:15:19;;;;;;;5.43;3.47;;;8.40;79.60;;;;;;5468621;26;19994;-83
2024/04/23 09:18:07;;;;;;;5.25;3.70;;;8.40;79.70;;;;;;5448256;26;19991;-78
2024/04/23 09:20:54;;;;;;;4.35;3.00;;;8.50;79.40;;;;;;5447215;26;19998;-81
2024/04/23 09:23:40;;;;;;;5.78;3.25;;;8.60;78.20;;;;;;5440468;26;20118;-79
2024/04/23 09:26:26;;;;;;;3.67;2.55;;;8.60;78.00;;;;;;5449476;26;20003;-77
2024/04/23 09:29:12;;;;;;;4.93;2.92;;;8.60;77.50;;;;;;5478474;26;20002;-78
2024/04/23 09:31:59;;;;;;;4.50;3.60;;;8.70;76.30;;;;;;5455006;26;20006;-78
2024/04/23 09:34:56;;;;;;;3.28;2.40;;;8.80;76.40;;;;;;5488257;21;20022;-69
2024/04/23 09:37:48;;;;;;;7.47;2.67;;;8.90;76.80;;;;;;5340130;26;20341;-69
2024/04/23 09:40:39;;;;;;;4.40;2.63;;;9.00;76.80;;;;;;5364746;26;20353;-69
2024/04/23 09:43:25;;;;;;;3.72;2.40;;;9.10;77.00;;;;;;5358117;26;20001;-69
2024/04/23 09:46:11;;;;;;;3.20;2.50;;;9.20;76.90;;;;;;5362597;26;20012;-69
2024/04/23 09:48:59;;;;;;;4.18;2.78;;;9.30;75.90;;;;;;5412996;26;20007;-69
2024/04/23 09:51:46;;;;;;;3.83;2.58;;;9.40;75.10;;;;;;5339137;26;20365;-69
2024/04/23 09:54:40;;;;;;;3.92;2.78;;;9.40;75.40;;;;;;5358867;26;19996;-65
2024/04/23 09:57:26;;;;;;;5.82;2.95;;;9.50;74.80;;;;;;5368744;26;20452;-65
2024/04/23 10:00:12;;;;;;;4.20;2.75;;;9.60;73.30;;;;;;5368069;26;20356;-66
2024/04/23 10:03:08;;;;;;;5.43;3.22;;;9.70;72.50;;;;;;5353891;26;20032;-67
2024/04/23 10:06:04;;;;;;;4.60;2.90;;;9.70;73.40;;;;;;5348896;26;20325;-67
2024/04/23 10:09:12;;;;;;;5.03;2.55;;;9.80;73.20;;;;;;5338479;26;20028;-66
2024/04/23 10:12:10;;;;;;;5.63;2.75;;;9.80;71.20;;;;;;5338685;26;20008;-67
2024/04/23 10:15:04;;;;;;;4.20;3.10;;;9.90;71.30;;;;;;5322882;26;20042;-67
2024/04/23 10:18:20;;;;;;;3.33;2.53;;;9.90;71.50;;;;;;5367436;26;20365;-66
2024/04/23 10:21:09;;;;;;;3.47;2.70;;;10.00;70.90;;;;;;5366646;26;20046;-67
2024/04/23 10:24:04;;;;;;;3.90;2.53;;;10.00;71.20;;;;;;5440832;26;19999;-67
2024/04/23 10:26:50;;;;;;;3.78;2.45;;;10.10;71.50;;;;;;5364362;26;19996;-67
2024/04/23 10:29:37;;;;;;;3.08;2.40;;;10.10;71.50;;;;;;5347942;26;20003;-67
2024/04/23 10:32:25;;;;;;;4.95;3.05;;;10.30;71.70;;;;;;5339192;26;19992;-67
2024/04/23 10:35:16;;;;;;;4.18;2.85;;;10.40;70.00;;;;;;5359932;26;19997;-69
2024/04/23 10:38:03;;;;;;;3.45;2.35;;;10.50;70.40;;;;;;5324911;26;20403;-70
2024/04/23 10:40:53;;;;;;;3.97;2.58;;;10.60;70.70;;;;;;5311976;26;20009;-70
2024/04/23 10:43:40;;;;;;;3.30;2.92;;;10.80;70.70;;;;;;5330981;26;20708;-71
2024/04/23 10:46:26;;;;;;;5.80;2.72;;;11.00;70.70;;;;;;5332777;26;19997;-71
2024/04/23 10:49:17;;;;;;;4.35;2.40;;;11.20;70.30;;;;;;5314861;26;20009;-69
2024/04/23 10:52:04;;;;;;;3.17;2.03;;;11.30;69.10;;;;;;5306286;26;20074;-70
2024/04/23 10:54:50;;;;;;;3.92;2.30;;;11.40;69.00;;;;;;5333050;26;20001;-70
2024/04/23 10:57:36;;;;;;;4.72;2.22;;;11.60;68.50;;;;;;5317301;26;20006;-69
2024/04/23 11:00:40;;;;;;;3.63;2.53;;;11.70;68.00;;;;;;5337112;26;20028;-67
2024/04/23 11:03:30;;;;;;;4.10;2.10;;;11.80;67.40;;;;;;5306871;26;20033;-68
2024/04/23 11:06:20;;;;;;;2.65;2.20;;;12.00;67.30;;;;;;5320015;26;20051;-65
2024/04/23 11:09:24;;;;;;;6.25;2.38;;;12.10;66.80;;;;;;5319275;26;20317;-68
2024/04/23 11:12:25;;;;;;;4.03;2.40;;;12.20;66.50;;;;;;5308738;26;20006;-67
2024/04/23 11:15:15;;;;;;;4.88;3.00;;;12.30;65.90;;;;;;5323381;26;20025;-67
2024/04/23 11:18:04;;;;;;;5.03;2.80;;;12.40;63.80;;;;;;5336083;26;20004;-67
2024/04/23 11:20:58;;;;;;;4.13;2.42;;;12.40;64.80;;;;;;5373594;26;20364;-68
2024/04/23 11:23:49;;;;;;;3.47;2.42;;;12.50;65.50;;;;;;5348844;26;20040;-68
2024/04/23 11:26:36;;;;;;;3.45;2.47;;;12.60;65.70;;;;;;5349482;26;19993;-68
2024/04/23 11:29:22;;;;;;;8.23;2.60;;;12.80;64.70;;;;;;5322118;26;20007;-65
2024/04/23 11:32:09;;;;;;;3.55;2.38;;;12.90;64.40;;;;;;5318893;26;20012;-67
2024/04/23 11:34:55;;;;;;;5.13;2.33;;;13.00;63.10;;;;;;5331868;26;20082;-68
2024/04/23 11:37:41;;;;;;;5.00;2.47;;;13.00;61.90;;;;;;5366802;26;20019;-66
2024/04/23 11:40:27;;;;;;;4.90;2.53;;;12.90;62.00;;;;;;5362254;26;20008;-67
2024/04/23 11:43:20;;;;;;;7.18;2.78;;;12.70;61.20;;;;;;5367088;26;20011;-67
2024/04/23 11:46:06;;;;;;;3.60;2.47;;;12.70;61.50;;;;;;5363760;26;19996;-67
2024/04/23 11:48:52;;;;;;;4.80;2.10;;;12.80;62.30;;;;;;5359391;26;20012;-67
2024/04/23 11:51:38;;;;;;;2.88;2.22;;;12.90;61.80;;;;;;5368278;26;20395;-67
2024/04/23 11:54:24;;;;;;;3.00;2.35;;;12.90;61.60;;;;;;5368061;26;19997;-68
2024/04/23 11:57:11;;;;;;;5.30;2.80;;;13.00;61.60;;;;;;5356456;26;20000;-66
2024/04/23 11:59:59;;;;;;;4.30;2.90;;;13.20;61.50;;;;;;5365667;26;20069;-67
2024/04/23 12:02:46;;;;;;;5.05;2.42;;;13.20;60.30;;;;;;5367398;26;19996;-67
2024/04/23 12:05:34;;;;;;;3.15;2.05;;;13.20;57.50;;;;;;5371630;26;20004;-66
2024/04/23 12:08:20;;;;;;;3.25;2.45;;;13.10;58.20;;;;;;5359336;26;20525;-67
2024/04/23 12:11:07;;;;;;;5.68;2.22;;;13.10;59.30;;;;;;5386520;26;20014;-66
2024/04/23 12:13:53;;;;;;;5.20;2.92;;;13.30;59.10;;;;;;5364995;26;20004;-67
2024/04/23 12:16:42;;;;;;;3.03;1.80;;;13.40;59.10;;;;;;5361369;26;20018;-67
2024/04/23 12:19:30;;;;;;;3.47;2.00;;;13.50;59.10;;;;;;5369629;26;20000;-67
2024/04/23 12:22:18;;;;;;;2.83;2.15;;;13.60;59.40;;;;;;5318958;26;20020;-67
2024/04/23 12:25:05;;;;;;;5.07;2.60;;;13.80;59.10;;;;;;5364173;26;20387;-67
2024/04/23 12:27:52;;;;;;;3.20;2.40;;;13.90;58.90;;;;;;5351848;26;20001;-67
2024/04/23 12:30:41;;;;;;;2.63;1.85;;;13.90;59.00;;;;;;5366484;26;20030;-68
2024/04/23 12:33:28;;;;;;;6.30;2.30;;;13.90;58.70;;;;;;5380463;26;20074;-67
2024/04/23 12:36:14;;;;;;;4.00;2.30;;;14.00;59.10;;;;;;5360381;26;20095;-67
2024/04/23 12:39:10;;;;;;;3.22;2.40;;;14.10;58.80;;;;;;5365260;26;20448;-67
2024/04/23 12:42:07;;;;;;;4.68;2.35;;;14.20;58.60;;;;;;5351709;26;20458;-66
2024/04/23 12:44:53;;;;;;;3.55;2.05;;;14.20;58.40;;;;;;5393872;26;20009;-65
2024/04/23 12:47:39;;;;;;;5.05;2.50;;;14.30;58.40;;;;;;5348439;26;20000;-70
2024/04/23 12:50:25;;;;;;;4.47;2.00;;;14.30;58.40;;;;;;5500819;21;20098;-68
2024/04/23 12:53:11;;;;;;;5.05;2.30;;;14.30;57.60;;;;;;5582612;21;20006;-77
2024/04/23 12:55:57;;;;;;;3.28;2.22;;;14.30;56.90;;;;;;5471182;26;19999;-79
2024/04/23 12:58:43;;;;;;;3.25;2.10;;;14.30;57.50;;;;;;5651448;20;20047;-68
2024/04/23 13:01:29;;;;;;;5.20;2.40;;;14.30;57.70;;;;;;5466383;26;20060;-69
2024/04/23 13:04:15;;;;;;;4.10;2.40;;;14.40;57.90;;;;;;5546764;20;20005;-63
2024/04/23 13:19:58;;;;;;;4.05;1.85;;;14.20;56.70;;;;;;1392606;24;19996;-66
2024/04/23 13:22:44;;;;;;;2.83;2.30;;;14.20;56.40;;;;;;5404284;26;20019;-66
2024/04/23 13:25:31;;;;;;;3.28;2.00;;;14.20;55.70;;;;;;5430385;26;20006;-67
2024/04/23 13:28:17;;;;;;;3.65;2.10;;;14.20;55.80;;;;;;5450493;26;20002;-67
2024/04/23 13:31:03;;;;;;;3.03;1.90;;;14.20;56.20;;;;;;5431490;26;20044;-67
2024/04/23 13:33:50;;;;;;;2.80;1.75;;;14.20;56.10;;;;;;5454002;26;20038;-67
2024/04/23 13:36:36;;;;;;;3.72;2.30;;;14.20;56.10;;;;;;5433584;26;20007;-67
2024/04/23 13:39:22;;;;;;;2.25;1.80;;;14.30;56.10;;;;;;5421092;26;20003;-67
2024/04/23 13:42:08;;;;;;;4.05;2.10;;;14.40;56.30;;;;;;5426735;26;20442;-67
2024/04/23 13:44:54;;;;;;;6.55;2.10;;;14.40;56.00;;;;;;5425810;26;19996;-67
2024/04/23 13:47:40;;;;;;;3.30;1.98;;;14.40;55.80;;;;;;5414484;26;20010;-67
2024/04/23 13:50:26;;;;;;;3.50;2.28;;;14.40;55.00;;;;;;5438973;26;20334;-67
2024/04/23 13:53:12;;;;;;;5.00;2.53;;;14.40;55.00;;;;;;5387056;26;20455;-67
2024/04/23 13:56:03;;;;;;;3.88;2.33;;;14.30;54.30;;;;;;5437873;26;19995;-67
2024/04/23 13:58:50;;;;;;;4.50;3.00;;;14.30;55.30;;;;;;5441465;26;20063;-66
2024/04/23 14:01:36;;;;;;;4.03;2.10;;;14.40;53.90;;;;;;5408305;26;20391;-66
2024/04/23 14:04:23;;;;;;;3.90;2.40;;;14.40;54.90;;;;;;5432830;26;19995;-66
2024/04/23 14:07:12;;;;;;;2.92;2.10;;;14.30;55.20;;;;;;5430922;26;20006;-66
2024/04/23 14:09:58;;;;;;;3.55;2.28;;;14.30;55.00;;;;;;5408051;26;20008;-67
2024/04/23 14:12:46;;;;;;;3.30;2.20;;;14.40;54.40;;;;;;5393879;26;20087;-66
2024/04/23 14:15:31;;;;;;;3.40;2.17;;;14.20;53.70;;;;;;5388011;26;20076;-67
2024/04/23 14:18:17;;;;;;;3.35;2.17;;;14.10;54.20;;;;;;5380691;26;20358;-67
2024/04/23 14:21:04;;;;;;;3.72;2.28;;;14.10;54.30;;;;;;5403251;26;20044;-67
2024/04/23 14:23:50;;;;;;;3.45;2.50;;;14.10;54.10;;;;;;5408153;26;19992;-66
2024/04/23 14:26:36;;;;;;;2.63;1.80;;;14.00;53.90;;;;;;5408348;26;20012;-66
2024/04/23 14:29:21;;;;;;;2.83;2.08;;;13.90;54.10;;;;;;5382008;26;20322;-67
2024/04/23 14:32:11;;;;;;;3.05;2.13;;;13.80;53.80;;;;;;5402613;26;20525;-67
2024/04/23 14:35:06;;;;;;;3.35;2.10;;;13.70;54.20;;;;;;5396693;26;20313;-67
2024/04/23 14:37:52;;;;;;;3.33;2.15;;;13.70;54.60;;;;;;5398264;26;20008;-67
2024/04/23 14:40:38;;;;;;;5.38;1.95;;;13.60;54.70;;;;;;5413248;26;20056;-67
2024/04/23 14:43:24;;;;;;;3.58;2.53;;;13.60;54.90;;;;;;5401430;26;20456;-67
2024/04/23 14:46:11;;;;;;;4.63;2.67;;;13.60;54.90;;;;;;5382278;26;20012;-67
2024/04/23 14:48:57;;;;;;;3.08;2.63;;;13.60;55.10;;;;;;5385647;26;19996;-67
2024/04/23 14:51:43;;;;;;;6.40;2.30;;;13.60;55.20;;;;;;5404857;26;19999;-67
2024/04/23 14:54:29;;;;;;;3.22;2.25;;;13.60;55.60;;;;;;5400604;26;20006;-66
2024/04/23 14:57:15;;;;;;;3.95;2.55;;;13.60;55.50;;;;;;5389072;26;20373;-68